createdAt,value
2023-03-05T00:00:17.549Z,3.08
2023-03-05T00:02:46.107Z,2.55
2023-03-05T00:05:14.670Z,2.53
2023-03-05T00:07:43.094Z,2.72
2023-03-05T00:10:12.132Z,3.25
2023-03-05T00:12:42.176Z,2.80
2023-03-05T00:15:11.264Z,2.50
2023-03-05T00:17:39.738Z,3.42
2023-03-05T00:20:09.852Z,3.03
2023-03-05T00:22:38.331Z,3.13
2023-03-05T00:25:07.827Z,2.47
2023-03-05T00:27:36.376Z,2.83
2023-03-05T00:30:07.583Z,3.15
2023-03-05T00:32:36.334Z,2.72
2023-03-05T00:35:05.445Z,2.20
2023-03-05T00:37:33.903Z,3.55
2023-03-05T00:40:02.647Z,3.70
2023-03-05T00:42:31.406Z,2.97
2023-03-05T00:44:59.990Z,2.50
2023-03-05T00:47:29.764Z,2.78
2023-03-05T00:49:58.221Z,3.85
2023-03-05T00:52:28.045Z,2.42
2023-03-05T00:54:56.524Z,2.67
2023-03-05T00:57:25.119Z,3.38
2023-03-05T00:59:53.631Z,2.90
2023-03-05T01:02:22.424Z,3.33
2023-03-05T01:04:52.406Z,2.88
2023-03-05T01:07:20.847Z,3.03
2023-03-05T01:09:49.352Z,3.22
2023-03-05T01:12:17.791Z,3.08
2023-03-05T01:14:46.261Z,3.30
2023-03-05T01:17:14.802Z,3.72
2023-03-05T01:19:43.180Z,11.20
2023-03-05T01:22:13.088Z,8.50
2023-03-05T01:24:41.624Z,7.07
2023-03-05T01:27:10.103Z,6.15
2023-03-05T01:29:38.909Z,3.17
2023-03-05T01:32:07.854Z,3.05
2023-03-05T01:34:37.576Z,2.35
2023-03-05T01:37:06.207Z,2.83
2023-03-05T01:39:36.731Z,2.88
2023-03-05T01:42:05.601Z,2.58
2023-03-05T01:44:34.215Z,3.22
2023-03-05T01:47:02.743Z,2.17
2023-03-05T01:49:33.762Z,2.63
2023-03-05T01:52:06.658Z,2.70
2023-03-05T01:54:40.060Z,2.30
2023-03-05T01:57:13.382Z,2.45
2023-03-05T01:59:44.711Z,2.10
2023-03-05T02:02:14.413Z,2.65
2023-03-05T02:04:47.069Z,2.00
2023-03-05T02:07:16.914Z,2.92
2023-03-05T02:09:46.667Z,2.42
2023-03-05T02:12:16.143Z,2.83
2023-03-05T02:14:47.683Z,2.25
2023-03-05T02:17:16.973Z,2.70
2023-03-05T02:19:54.199Z,2.67
2023-03-05T02:22:25.310Z,2.58
2023-03-05T02:24:53.735Z,2.22
2023-03-05T02:27:27.172Z,1.63
2023-03-05T02:29:55.768Z,1.88
2023-03-05T02:32:24.272Z,2.72
2023-03-05T02:34:52.795Z,2.60
2023-03-05T02:37:21.287Z,2.08
2023-03-05T02:39:51.129Z,1.83
2023-03-05T02:42:19.658Z,2.53
2023-03-05T02:44:48.158Z,2.70
2023-03-05T02:47:16.741Z,2.13
2023-03-05T02:49:46.144Z,2.05
2023-03-05T02:52:14.724Z,2.35
2023-03-05T02:54:43.256Z,2.05
2023-03-05T02:57:13.136Z,2.83
2023-03-05T02:59:41.646Z,2.53
2023-03-05T03:02:10.024Z,2.00
2023-03-05T03:04:38.703Z,2.53
2023-03-05T03:07:07.358Z,2.45
2023-03-05T03:09:36.386Z,2.88
2023-03-05T03:12:05.703Z,2.33
2023-03-05T03:14:39.020Z,2.33
2023-03-05T03:17:08.170Z,3.03
2023-03-05T03:19:37.103Z,3.13
2023-03-05T03:22:06.737Z,2.78
2023-03-05T03:24:36.671Z,2.95
2023-03-05T03:27:05.522Z,3.15
2023-03-05T03:29:35.479Z,2.85
2023-03-05T03:32:04.719Z,2.63
2023-03-05T03:34:33.239Z,3.20
2023-03-05T03:37:02.950Z,3.30
2023-03-05T03:39:31.572Z,3.88
2023-03-05T03:42:00.074Z,2.97
2023-03-05T03:44:28.508Z,3.30
2023-03-05T03:46:58.428Z,3.80
2023-03-05T03:49:29.955Z,3.15
2023-03-05T03:51:59.068Z,4.40
2023-03-05T03:54:29.512Z,3.50
2023-03-05T03:56:58.037Z,3.78
2023-03-05T03:59:26.601Z,3.92
2023-03-05T04:01:55.203Z,4.53
2023-03-05T04:04:26.423Z,4.18
2023-03-05T04:06:57.984Z,3.85
2023-03-05T04:09:32.387Z,4.00
2023-03-05T04:12:00.901Z,3.97
2023-03-05T04:14:32.094Z,3.90
2023-03-05T04:17:00.640Z,3.95
2023-03-05T04:19:33.156Z,4.05
2023-03-05T04:22:01.661Z,4.00
2023-03-05T04:24:30.023Z,3.90
2023-03-05T04:26:58.483Z,4.35
2023-03-05T04:29:27.070Z,4.43
2023-03-05T04:31:55.766Z,3.67
2023-03-05T04:34:24.220Z,3.92
2023-03-05T04:36:53.942Z,3.83
2023-03-05T04:39:22.797Z,3.10
2023-03-05T04:41:51.186Z,3.97
2023-03-05T04:44:19.729Z,3.47
2023-03-05T04:46:48.358Z,3.15
2023-03-05T04:49:16.769Z,3.75
2023-03-05T04:51:45.191Z,3.40
2023-03-05T04:54:14.920Z,2.88
2023-03-05T04:56:43.410Z,3.55
2023-03-05T04:59:11.983Z,3.03
2023-03-05T05:01:40.444Z,2.67
2023-03-05T05:04:08.964Z,3.03
2023-03-05T05:06:40.565Z,2.72
2023-03-05T05:09:09.265Z,3.30
2023-03-05T05:11:40.697Z,3.80
2023-03-05T05:14:09.108Z,4.45
2023-03-05T05:16:37.636Z,3.85
2023-03-05T05:19:06.277Z,4.65
2023-03-05T05:21:35.396Z,4.05
2023-03-05T05:24:04.100Z,3.67
2023-03-05T05:26:32.737Z,3.88
2023-03-05T05:29:02.523Z,3.75
2023-03-05T05:31:30.929Z,4.32
2023-03-05T05:33:59.597Z,4.35
2023-03-05T05:36:28.015Z,3.75
2023-03-05T05:38:56.871Z,4.82
2023-03-05T05:41:25.724Z,4.07
2023-03-05T05:43:54.153Z,4.18
2023-03-05T05:46:24.661Z,4.00
2023-03-05T05:48:53.354Z,4.00
2023-03-05T05:51:24.183Z,4.30
2023-03-05T05:53:52.910Z,4.18
2023-03-05T05:56:22.269Z,3.05
2023-03-05T05:58:51.278Z,3.45
2023-03-05T06:01:22.764Z,4.15
2023-03-05T06:03:53.607Z,3.67
2023-03-05T06:06:25.106Z,3.35
2023-03-05T06:08:54.707Z,3.60
2023-03-05T06:11:24.149Z,3.40
2023-03-05T06:13:52.670Z,3.10
2023-03-05T06:16:23.879Z,3.17
2023-03-05T06:18:54.772Z,3.65
2023-03-05T06:21:23.913Z,3.30
2023-03-05T06:23:52.765Z,3.88
2023-03-05T06:26:23.004Z,4.28
2023-03-05T06:28:52.482Z,4.57
2023-03-05T06:31:23.305Z,4.60
2023-03-05T06:33:52.554Z,4.40
2023-03-05T06:36:24.176Z,4.15
2023-03-05T06:38:53.686Z,4.65
2023-03-05T06:41:24.098Z,4.18
2023-03-05T06:43:52.547Z,5.63
2023-03-05T06:46:22.862Z,5.43
2023-03-05T06:48:52.531Z,5.72
2023-03-05T06:51:24.755Z,4.47
2023-03-05T06:53:54.647Z,4.60
2023-03-05T06:56:23.886Z,4.90
2023-03-05T06:58:53.093Z,4.03
2023-03-05T07:01:23.854Z,5.55
2023-03-05T07:03:53.636Z,4.97
2023-03-05T07:06:23.933Z,5.28
2023-03-05T07:08:55.331Z,4.65
2023-03-05T07:11:24.528Z,5.50
2023-03-05T07:13:52.942Z,4.57
2023-03-05T07:16:23.668Z,5.82
2023-03-05T07:18:52.987Z,5.15
2023-03-05T07:21:24.412Z,4.32
2023-03-05T07:23:54.971Z,4.57
2023-03-05T07:26:24.322Z,4.13
2023-03-05T07:28:52.886Z,4.70
2023-03-05T07:31:27.109Z,4.10
2023-03-05T07:33:55.786Z,4.88
2023-03-05T07:36:25.684Z,4.35
2023-03-05T07:38:54.384Z,4.35
2023-03-05T07:41:23.513Z,4.22
2023-03-05T07:43:53.981Z,4.60
2023-03-05T07:46:25.947Z,3.78
2023-03-05T07:48:56.166Z,4.57
2023-03-05T07:51:28.616Z,4.65
2023-03-05T07:53:58.856Z,4.68
2023-03-05T07:56:32.195Z,4.15
2023-03-05T07:59:01.787Z,5.30
2023-03-05T08:01:30.574Z,3.72
2023-03-05T08:03:59.231Z,4.20
2023-03-05T08:06:29.506Z,3.45
2023-03-05T08:08:59.076Z,4.00
2023-03-05T08:11:28.432Z,4.25
2023-03-05T08:13:59.471Z,4.28
2023-03-05T08:16:28.352Z,4.05
2023-03-05T08:18:57.563Z,4.20
2023-03-05T08:21:29.466Z,3.92
2023-03-05T08:23:59.693Z,4.07
2023-03-05T08:26:30.035Z,4.68
2023-03-05T08:28:58.969Z,3.60
2023-03-05T08:31:30.210Z,3.75
2023-03-05T08:34:00.061Z,3.65
2023-03-05T08:36:29.113Z,3.58
2023-03-05T08:38:59.638Z,3.30
2023-03-05T08:41:28.593Z,4.05
2023-03-05T08:43:56.992Z,3.08
2023-03-05T08:46:25.451Z,2.58
2023-03-05T08:48:54.060Z,2.72
2023-03-05T08:51:25.929Z,2.83
2023-03-05T08:53:56.174Z,2.60
2023-03-05T08:56:28.298Z,3.30
2023-03-05T08:58:56.755Z,2.95
2023-03-05T09:01:25.465Z,3.30
2023-03-05T09:03:53.889Z,2.85
2023-03-05T09:06:22.525Z,3.17
2023-03-05T09:08:51.031Z,2.95
2023-03-05T09:11:19.687Z,2.90
2023-03-05T09:13:49.553Z,3.70
2023-03-05T09:16:19.857Z,3.60
2023-03-05T09:18:48.625Z,3.55
2023-03-05T09:21:18.564Z,2.85
2023-03-05T09:23:47.867Z,3.67
2023-03-05T09:26:19.366Z,3.50
2023-03-05T09:28:49.645Z,3.70
2023-03-05T09:31:18.775Z,2.97
2023-03-05T09:33:48.993Z,2.47
2023-03-05T09:36:20.442Z,2.72
2023-03-05T09:38:49.328Z,3.15
2023-03-05T09:41:27.487Z,3.22
2023-03-05T09:44:03.445Z,3.70
2023-03-05T09:46:46.756Z,3.83
2023-03-05T09:49:20.284Z,4.18
2023-03-05T09:51:53.880Z,3.65
2023-03-05T09:54:25.885Z,5.03
2023-03-05T09:56:57.581Z,3.85
2023-03-05T09:59:35.868Z,5.13
2023-03-05T10:02:12.710Z,3.88
2023-03-05T10:04:46.095Z,4.07
2023-03-05T10:07:20.004Z,4.60
2023-03-05T10:09:55.293Z,4.47
2023-03-05T10:12:28.793Z,5.55
2023-03-05T10:15:00.740Z,6.25
2023-03-05T10:17:51.192Z,5.35
2023-03-05T10:20:40.026Z,5.60
2023-03-05T10:23:32.066Z,4.57
2023-03-05T10:26:16.060Z,3.95
2023-03-05T10:28:54.619Z,3.67
2023-03-05T10:31:44.765Z,4.88
2023-03-05T10:34:31.269Z,3.25
2023-03-05T10:37:30.026Z,3.30
2023-03-05T10:40:19.448Z,3.47
2023-03-05T10:42:56.316Z,2.88
2023-03-05T10:45:30.189Z,1.98
2023-03-05T10:48:06.112Z,2.72
2023-03-05T10:50:39.572Z,2.60
2023-03-05T10:53:16.294Z,1.83
2023-03-05T10:55:45.169Z,1.90
2023-03-05T10:58:15.432Z,1.90
2023-03-05T11:01:04.347Z,1.15
2023-03-05T11:03:56.470Z,2.33
2023-03-05T11:06:34.753Z,1.65
2023-03-05T11:09:21.818Z,1.90
2023-03-05T11:12:12.582Z,1.70
2023-03-05T11:14:43.050Z,1.33
2023-03-05T11:17:34.111Z,3.08
2023-03-05T11:20:32.617Z,1.38
2023-03-05T11:23:12.251Z,1.80
2023-03-05T11:25:59.489Z,1.70
2023-03-05T11:28:33.743Z,1.83
2023-03-05T11:31:09.404Z,1.40
2023-03-05T11:33:38.729Z,1.77
2023-03-05T11:36:23.861Z,1.83
2023-03-05T11:38:55.692Z,1.90
2023-03-05T11:41:32.366Z,2.38
2023-03-05T11:44:05.690Z,1.60
2023-03-05T11:46:41.958Z,1.95
2023-03-05T11:49:15.921Z,2.00
2023-03-05T11:51:51.856Z,1.85
2023-03-05T11:54:27.524Z,2.30
2023-03-05T11:56:56.304Z,1.95
2023-03-05T11:59:28.888Z,1.90
2023-03-05T12:01:58.827Z,1.95
2023-03-05T12:04:27.455Z,1.98
2023-03-05T12:07:01.068Z,1.80
2023-03-05T12:09:40.902Z,1.48
2023-03-05T12:12:21.585Z,1.55
2023-03-05T12:14:54.374Z,1.80
2023-03-05T12:17:29.640Z,1.65
2023-03-05T12:20:04.837Z,2.15
2023-03-05T12:22:38.352Z,1.58
2023-03-05T12:25:28.959Z,3.63
2023-03-05T12:27:57.886Z,1.55
2023-03-05T12:30:55.703Z,1.33
2023-03-05T12:33:36.389Z,1.10
2023-03-05T12:36:33.900Z,1.77
2023-03-05T12:39:43.907Z,1.25
2023-03-05T12:42:44.725Z,1.13
2023-03-05T12:45:34.517Z,1.92
2023-03-05T12:48:40.596Z,1.33
2023-03-05T12:51:28.911Z,1.17
2023-03-05T12:53:58.487Z,1.10
2023-03-05T12:56:32.619Z,1.35
2023-03-05T12:59:04.224Z,1.63
2023-03-05T13:01:43.104Z,1.65
2023-03-05T13:04:19.671Z,1.10
2023-03-05T13:06:58.480Z,1.73
2023-03-05T13:09:29.832Z,1.30
2023-03-05T13:11:59.775Z,1.42
2023-03-05T13:14:36.712Z,1.17
2023-03-05T13:17:40.217Z,1.23
2023-03-05T13:20:27.854Z,1.17
2023-03-05T13:23:19.878Z,1.02
2023-03-05T13:26:00.290Z,0.88
2023-03-05T13:28:31.030Z,1.20
2023-03-05T13:31:02.661Z,1.02
2023-03-05T13:33:35.973Z,1.05
2023-03-05T13:36:06.003Z,1.00
2023-03-05T13:38:41.397Z,1.20
2023-03-05T13:41:25.312Z,1.23
2023-03-05T13:43:57.267Z,1.50
2023-03-05T13:46:31.781Z,1.10
2023-03-05T13:49:19.135Z,1.00
2023-03-05T13:51:49.741Z,0.85
2023-03-05T13:54:20.865Z,1.58
2023-03-05T13:56:51.098Z,3.58
2023-03-05T13:59:22.687Z,14.73
2023-03-05T14:01:54.089Z,5.57
2023-03-05T14:04:25.624Z,2.28
2023-03-05T14:06:59.397Z,1.70
2023-03-05T14:09:29.852Z,1.70
2023-03-05T14:12:01.692Z,1.90
2023-03-05T14:14:36.756Z,1.80
2023-03-05T14:17:38.165Z,2.17
2023-03-05T14:20:28.892Z,4.22
2023-03-05T14:22:59.618Z,1.30
2023-03-05T14:25:35.466Z,1.30
2023-03-05T14:28:05.571Z,0.90
2023-03-05T14:30:36.416Z,1.17
2023-03-05T14:33:05.444Z,1.10
2023-03-05T14:35:34.321Z,1.13
2023-03-05T14:38:03.059Z,1.00
2023-03-05T14:40:33.877Z,0.90
2023-03-05T14:43:03.971Z,1.05
2023-03-05T14:45:34.175Z,1.15
2023-03-05T14:48:06.396Z,1.65
2023-03-05T14:50:37.950Z,0.90
2023-03-05T14:53:10.509Z,0.90
2023-03-05T14:55:39.269Z,1.27
2023-03-05T14:58:13.371Z,1.40
2023-03-05T15:00:42.194Z,1.42
2023-03-05T15:03:13.491Z,0.95
2023-03-05T15:05:42.768Z,1.48
2023-03-05T15:08:16.069Z,1.75
2023-03-05T15:10:44.740Z,2.22
2023-03-05T15:13:15.585Z,1.92
2023-03-05T15:15:44.977Z,1.40
2023-03-05T15:18:16.558Z,1.80
2023-03-05T15:20:45.888Z,1.50
2023-03-05T15:23:14.432Z,1.30
2023-03-05T15:25:42.902Z,1.75
2023-03-05T15:28:11.996Z,1.40
2023-03-05T15:30:43.083Z,1.33
2023-03-05T15:33:17.031Z,1.83
2023-03-05T15:35:46.090Z,1.58
2023-03-05T15:38:15.298Z,1.15
2023-03-05T15:40:44.141Z,2.15
2023-03-05T15:43:12.700Z,2.25
2023-03-05T15:45:41.100Z,1.92
2023-03-05T15:48:10.238Z,1.80
2023-03-05T15:50:43.104Z,1.45
2023-03-05T15:53:15.611Z,2.42
2023-03-05T15:55:45.749Z,2.38
2023-03-05T15:58:16.634Z,2.03
2023-03-05T16:00:47.285Z,1.73
2023-03-05T16:03:15.858Z,2.05
2023-03-05T16:05:45.614Z,2.00
2023-03-05T16:08:14.439Z,1.95
2023-03-05T16:10:42.892Z,1.63
2023-03-05T16:13:15.088Z,1.90
2023-03-05T16:15:44.720Z,1.50
2023-03-05T16:18:17.560Z,1.50
2023-03-05T16:20:47.603Z,2.00
2023-03-05T16:23:16.066Z,2.05
2023-03-05T16:25:44.612Z,2.38
2023-03-05T16:28:13.130Z,4.03
2023-03-05T16:30:41.834Z,13.93
2023-03-05T16:33:10.538Z,3.28
2023-03-05T16:35:39.054Z,4.53
2023-03-05T16:38:09.124Z,3.75
2023-03-05T16:41:02.934Z,2.60
2023-03-05T16:43:26.856Z,2.63
2023-03-05T16:45:55.383Z,2.67
2023-03-05T16:48:23.807Z,4.10
2023-03-05T16:50:52.278Z,1.92
2023-03-05T16:53:21.975Z,2.65
2023-03-05T16:55:50.453Z,2.40
2023-03-05T16:58:18.853Z,1.95
2023-03-05T17:00:48.853Z,2.10
2023-03-05T17:03:17.316Z,3.22
2023-03-05T17:05:45.855Z,2.53
2023-03-05T17:08:14.365Z,2.42
2023-03-05T17:10:44.688Z,3.00
2023-03-05T17:13:13.240Z,2.30
2023-03-05T17:15:44.555Z,3.33
2023-03-05T17:18:13.194Z,3.28
2023-03-05T17:20:41.630Z,3.03
2023-03-05T17:23:10.129Z,4.30
2023-03-05T17:25:38.765Z,3.10
2023-03-05T17:28:08.677Z,3.03
2023-03-05T17:30:37.342Z,3.47
2023-03-05T17:33:06.429Z,2.88
2023-03-05T17:35:35.212Z,2.85
2023-03-05T17:38:03.878Z,2.92
2023-03-05T17:40:32.675Z,2.80
2023-03-05T17:43:01.096Z,6.00
2023-03-05T17:45:30.976Z,3.92
2023-03-05T17:47:59.298Z,4.10
2023-03-05T17:50:29.226Z,4.03
2023-03-05T17:52:57.926Z,3.45
2023-03-05T17:55:26.461Z,3.38
2023-03-05T17:57:55.013Z,4.50
2023-03-05T18:00:24.969Z,2.47
2023-03-05T18:02:55.671Z,2.83
2023-03-05T18:05:25.756Z,3.10
2023-03-05T18:07:54.843Z,2.90
2023-03-05T18:10:25.695Z,2.92
2023-03-05T18:12:54.212Z,2.58
2023-03-05T18:15:24.809Z,2.70
2023-03-05T18:17:55.164Z,3.20
2023-03-05T18:20:29.875Z,3.22
2023-03-05T18:22:59.150Z,4.57
2023-03-05T18:25:31.270Z,4.90
2023-03-05T18:28:00.338Z,4.80
2023-03-05T18:30:29.257Z,3.67
2023-03-05T18:32:59.150Z,3.38
2023-03-05T18:35:28.865Z,3.38
2023-03-05T18:37:57.986Z,3.58
2023-03-05T18:40:29.893Z,4.68
2023-03-05T18:43:00.854Z,3.72
2023-03-05T18:45:30.888Z,3.67
2023-03-05T18:48:00.809Z,2.97
2023-03-05T18:50:30.183Z,3.33
2023-03-05T18:52:58.674Z,4.05
2023-03-05T18:55:29.436Z,3.45
2023-03-05T18:57:58.201Z,4.03
2023-03-05T19:00:28.991Z,4.53
2023-03-05T19:02:59.790Z,5.03
2023-03-05T19:05:28.558Z,3.97
2023-03-05T19:07:57.652Z,4.15
2023-03-05T19:10:26.398Z,4.88
2023-03-05T19:13:05.654Z,4.85
2023-03-05T19:15:34.346Z,5.07
2023-03-05T19:18:04.244Z,4.78
2023-03-05T19:20:32.691Z,4.35
2023-03-05T19:23:01.273Z,4.10
2023-03-05T19:25:29.741Z,4.40
2023-03-05T19:27:58.352Z,4.93
2023-03-05T19:30:26.691Z,4.38
2023-03-05T19:32:55.116Z,4.50
2023-03-05T19:35:25.382Z,4.25
2023-03-05T19:37:53.906Z,4.82
2023-03-05T19:40:22.648Z,4.22
2023-03-05T19:42:51.374Z,4.38
2023-03-05T19:45:19.996Z,4.30
2023-03-05T19:47:48.359Z,4.03
2023-03-05T19:50:17.739Z,4.90
2023-03-05T19:52:47.519Z,3.97
2023-03-05T19:55:16.115Z,4.15
2023-03-05T19:57:46.346Z,3.83
2023-03-05T20:00:15.164Z,3.55
2023-03-05T20:02:43.546Z,4.18
2023-03-05T20:05:12.431Z,4.57
2023-03-05T20:07:40.773Z,3.65
2023-03-05T20:10:12.049Z,5.50
2023-03-05T20:12:40.553Z,4.45
2023-03-05T20:15:09.676Z,4.13
2023-03-05T20:17:38.222Z,4.25
2023-03-05T20:20:08.239Z,3.72
2023-03-05T20:22:36.668Z,4.82
2023-03-05T20:25:07.005Z,4.20
2023-03-05T20:27:36.769Z,4.07
2023-03-05T20:30:06.149Z,4.63
2023-03-05T20:32:34.727Z,5.05
2023-03-05T20:35:03.296Z,4.57
2023-03-05T20:37:39.866Z,4.07
2023-03-05T20:40:10.038Z,3.63
2023-03-05T20:42:39.910Z,4.10
2023-03-05T20:45:09.485Z,3.97
2023-03-05T20:47:40.877Z,4.72
2023-03-05T20:50:10.942Z,4.63
2023-03-05T20:52:40.069Z,4.97
2023-03-05T20:55:10.318Z,5.00
2023-03-05T20:57:41.898Z,5.05
2023-03-05T21:00:12.028Z,4.78
2023-03-05T21:02:41.127Z,4.78
2023-03-05T21:05:10.338Z,4.30
2023-03-05T21:07:38.874Z,4.90
2023-03-05T21:10:09.389Z,4.38
2023-03-05T21:12:38.060Z,4.68
2023-03-05T21:15:10.367Z,5.10
2023-03-05T21:17:38.944Z,5.55
2023-03-05T21:20:09.555Z,5.65
2023-03-05T21:22:38.304Z,5.35
2023-03-05T21:25:16.242Z,6.43
2023-03-05T21:27:44.930Z,6.18
2023-03-05T21:30:15.581Z,8.63
2023-03-05T21:32:44.620Z,8.20
2023-03-05T21:35:17.197Z,6.72
2023-03-05T21:37:46.626Z,7.85
2023-03-05T21:40:16.928Z,9.15
2023-03-05T21:42:45.939Z,7.47
2023-03-05T21:45:18.212Z,6.78
2023-03-05T21:47:49.168Z,7.15
2023-03-05T21:50:17.751Z,7.63
2023-03-05T21:52:46.798Z,6.85
2023-03-05T21:55:17.517Z,8.00
2023-03-05T21:57:50.897Z,7.97
2023-03-05T22:00:23.897Z,7.70
2023-03-05T22:02:52.738Z,7.90
2023-03-05T22:05:21.593Z,8.30
2023-03-05T22:07:49.961Z,8.90
2023-03-05T22:10:21.287Z,7.88
2023-03-05T22:12:56.657Z,9.10
2023-03-05T22:15:26.587Z,8.93
2023-03-05T22:17:55.000Z,8.68
2023-03-05T22:20:23.817Z,8.50
2023-03-05T22:22:52.771Z,9.05
2023-03-05T22:25:21.275Z,10.15
2023-03-05T22:27:49.816Z,8.90
2023-03-05T22:30:18.444Z,9.05
2023-03-05T22:32:48.505Z,9.60
2023-03-05T22:35:17.279Z,8.38
2023-03-05T22:37:45.736Z,8.30
2023-03-05T22:40:17.032Z,8.60
2023-03-05T22:42:46.452Z,9.85
2023-03-05T22:45:17.939Z,9.38
2023-03-05T22:47:50.229Z,9.77
2023-03-05T22:50:19.494Z,9.82
2023-03-05T22:52:48.028Z,9.45
2023-03-05T22:55:17.420Z,9.00
2023-03-05T22:57:46.876Z,10.60
2023-03-05T23:00:21.682Z,10.55
2023-03-05T23:02:52.527Z,10.98
2023-03-05T23:05:21.143Z,10.55
2023-03-05T23:07:49.895Z,11.23
2023-03-05T23:10:23.844Z,11.50
2023-03-05T23:12:56.702Z,10.63
2023-03-05T23:15:27.522Z,11.25
2023-03-05T23:17:57.719Z,12.52
2023-03-05T23:20:27.953Z,12.18
2023-03-05T23:22:57.122Z,10.55
2023-03-05T23:25:28.015Z,12.27
2023-03-05T23:27:57.842Z,11.73
2023-03-05T23:30:28.084Z,11.93
2023-03-05T23:33:00.226Z,12.45
2023-03-05T23:35:30.756Z,11.88
2023-03-05T23:38:00.701Z,13.07
2023-03-05T23:40:31.184Z,13.10
2023-03-05T23:43:00.434Z,13.05
2023-03-05T23:45:29.525Z,12.82
2023-03-05T23:47:59.834Z,14.23
2023-03-05T23:50:30.947Z,11.82
2023-03-05T23:53:01.965Z,12.38
2023-03-05T23:55:33.704Z,12.57
2023-03-05T23:58:02.901Z,13.10
